Time;durP1;ratioP1;P1;durP2;ratioP2;P2;SDS_P1;SDS_P2;PMS_P1;PMS_P2;Temp;Humidity;BMP_temperature;BMP_pressure;BME280_temperature;BME280_humidity;BME280_pressure;Samples;Min_cycle;Max_cycle;Signal;HPM_P1;HPM_P2
2022/03/03 00:00:47;;;;;;;8.80;5.40;;;;;;;4.20;100.00;100520.75;1724063;83;21018;-61
2022/03/03 00:03:15;;;;;;;11.63;5.95;;;;;;;4.21;100.00;100521.59;1709231;83;21486;-61
2022/03/03 00:05:41;;;;;;;10.75;5.70;;;;;;;4.05;100.00;100515.91;1738997;82;21127;-62
2022/03/03 00:08:08;;;;;;;8.98;5.78;;;;;;;3.91;100.00;100507.22;1739233;82;21036;-60
2022/03/03 00:10:35;;;;;;;10.35;6.20;;;;;;;3.88;100.00;100502.20;1724441;82;21031;-61
2022/03/03 00:13:02;;;;;;;14.03;6.72;;;;;;;3.83;100.00;100500.59;1731370;82;21075;-61
2022/03/03 00:15:34;;;;;;;12.15;5.97;;;;;;;3.81;100.00;100490.42;1737000;82;21108;-62
2022/03/03 00:17:57;;;;;;;10.00;5.87;;;;;;;3.81;100.00;100489.14;1700045;84;21092;-61
2022/03/03 00:20:24;;;;;;;8.33;5.50;;;;;;;3.83;100.00;100485.31;1709490;84;21173;-61
2022/03/03 00:22:50;;;;;;;9.03;5.22;;;;;;;3.79;100.00;100475.60;1681223;84;21561;-60
2022/03/03 00:25:17;;;;;;;6.65;5.03;;;;;;;3.90;100.00;100469.91;1662335;85;21104;-61
2022/03/03 00:27:45;;;;;;;7.08;5.03;;;;;;;4.02;100.00;100457.40;1710684;83;21040;-61
2022/03/03 00:30:13;;;;;;;7.97;5.28;;;;;;;4.04;100.00;100459.92;1693194;84;21518;-61
2022/03/03 00:32:40;;;;;;;7.22;5.03;;;;;;;4.03;100.00;100449.31;1694298;83;21078;-61
2022/03/03 00:35:10;;;;;;;7.20;4.67;;;;;;;4.02;100.00;100447.20;1729756;82;20988;-63
2022/03/03 00:37:38;;;;;;;7.08;5.10;;;;;;;4.02;100.00;100444.66;1735982;82;21010;-60
2022/03/03 00:40:07;;;;;;;6.72;4.75;;;;;;;4.01;100.00;100446.38;1700748;83;21089;-60
2022/03/03 00:42:34;;;;;;;8.90;4.80;;;;;;;4.01;100.00;100434.91;1701471;84;21486;-61
2022/03/03 00:45:00;;;;;;;7.37;5.05;;;;;;;3.96;100.00;100435.42;1680633;84;21041;-61
2022/03/03 00:47:27;;;;;;;5.95;4.53;;;;;;;3.97;100.00;100433.30;1681195;84;21034;-60
2022/03/03 00:49:53;;;;;;;6.00;4.67;;;;;;;3.96;100.00;100435.86;1690854;84;21099;-61
2022/03/03 00:52:20;;;;;;;6.35;5.00;;;;;;;3.97;100.00;100427.34;1673919;84;21042;-61
2022/03/03 00:54:47;;;;;;;9.33;4.90;;;;;;;3.95;100.00;100431.62;1703260;84;20955;-61
2022/03/03 00:57:14;;;;;;;6.97;5.03;;;;;;;3.94;100.00;100425.69;1702006;84;21122;-61
2022/03/03 00:59:40;;;;;;;6.00;4.65;;;;;;;3.92;100.00;100421.50;1704698;84;21106;-61
2022/03/03 01:02:07;;;;;;;6.67;4.78;;;;;;;3.93;100.00;100418.07;1704130;84;21492;-61
2022/03/03 01:04:34;;;;;;;6.20;4.62;;;;;;;3.88;100.00;100418.16;1673864;84;21043;-61
2022/03/03 01:07:01;;;;;;;7.60;5.10;;;;;;;3.90;100.00;100424.51;1684323;84;21095;-60
2022/03/03 01:09:30;;;;;;;7.30;4.95;;;;;;;3.92;100.00;100418.95;1696911;84;21039;-62
2022/03/03 01:11:57;;;;;;;8.33;5.42;;;;;;;3.91;100.00;100419.81;1708704;84;21032;-62
2022/03/03 01:14:25;;;;;;;9.20;6.00;;;;;;;3.89;100.00;100407.09;1697476;84;21584;-62
2022/03/03 01:16:53;;;;;;;7.45;5.08;;;;;;;3.88;100.00;100404.59;1672382;85;21064;-61
2022/03/03 01:19:20;;;;;;;8.80;5.83;;;;;;;3.89;100.00;100403.72;1690509;85;21053;-61
2022/03/03 01:21:47;;;;;;;7.20;5.12;;;;;;;3.89;100.00;100403.27;1695852;84;21023;-60
2022/03/03 01:24:14;;;;;;;7.42;5.10;;;;;;;3.86;100.00;100393.16;1678270;84;21006;-61
2022/03/03 01:26:42;;;;;;;7.92;5.08;;;;;;;3.84;100.00;100391.52;1696935;83;21054;-61
2022/03/03 01:29:10;;;;;;;6.62;4.95;;;;;;;3.85;100.00;100395.28;1644408;86;21029;-61
2022/03/03 01:31:37;;;;;;;7.87;5.30;;;;;;;3.88;100.00;100400.34;1690525;84;21117;-61
2022/03/03 01:34:09;;;;;;;7.53;5.58;;;;;;;3.89;100.00;100396.08;1690640;84;21067;-61
2022/03/03 01:36:36;;;;;;;8.58;5.95;;;;;;;3.91;100.00;100400.70;1687611;84;20988;-61
2022/03/03 01:39:05;;;;;;;9.95;6.45;;;;;;;3.91;100.00;100395.17;1692228;83;21506;-60
2022/03/03 01:41:34;;;;;;;9.70;6.10;;;;;;;3.93;100.00;100392.16;1672639;85;21089;-62
2022/03/03 01:44:01;;;;;;;9.25;6.15;;;;;;;3.97;100.00;100387.86;1696095;84;21066;-62
2022/03/03 01:46:28;;;;;;;8.90;6.17;;;;;;;4.03;100.00;100386.47;1696337;84;21566;-63
2022/03/03 01:48:55;;;;;;;9.93;6.85;;;;;;;4.09;100.00;100390.61;1693063;83;21482;-62
2022/03/03 01:51:23;;;;;;;9.33;5.97;;;;;;;4.11;100.00;100390.98;1694346;84;21043;-63
2022/03/03 01:53:50;;;;;;;7.62;5.78;;;;;;;4.14;100.00;100386.28;1709823;83;21461;-63
2022/03/03 01:56:18;;;;;;;9.88;6.47;;;;;;;4.17;100.00;100388.75;1692800;83;21002;-63
2022/03/03 01:58:46;;;;;;;10.68;7.15;;;;;;;4.17;100.00;100387.03;1690812;85;21557;-62
2022/03/03 02:01:15;;;;;;;10.95;7.40;;;;;;;4.12;100.00;100379.94;1692021;84;21047;-62
2022/03/03 02:03:43;;;;;;;11.33;7.95;;;;;;;4.08;100.00;100387.23;1690583;85;21052;-62
2022/03/03 02:06:10;;;;;;;10.05;7.25;;;;;;;4.04;100.00;100378.42;1720736;82;20987;-63
2022/03/03 02:08:37;;;;;;;10.72;7.87;;;;;;;4.02;100.00;100380.98;1697427;83;21558;-62
2022/03/03 02:11:05;;;;;;;13.43;7.55;;;;;;;4.00;100.00;100386.55;1688678;84;21012;-62
2022/03/03 02:13:36;;;;;;;11.50;7.58;;;;;;;4.00;100.00;100377.62;1698882;83;21524;-62
2022/03/03 02:16:04;;;;;;;10.60;7.45;;;;;;;4.01;100.00;100378.02;1702348;84;21055;-62
2022/03/03 02:18:30;;;;;;;10.40;6.58;;;;;;;3.95;100.00;100376.86;1653884;85;21536;-62
2022/03/03 02:20:57;;;;;;;11.00;6.75;;;;;;;3.88;100.00;100375.31;1695616;83;21052;-64
2022/03/03 02:23:24;;;;;;;11.60;7.00;;;;;;;3.83;100.00;100369.02;1694717;83;21046;-62
2022/03/03 02:25:51;;;;;;;11.85;6.85;;;;;;;3.81;100.00;100371.61;1695819;85;21034;-62
2022/03/03 02:28:18;;;;;;;10.55;7.10;;;;;;;3.75;100.00;100367.91;1670280;85;21050;-61
2022/03/03 02:30:44;;;;;;;10.05;6.97;;;;;;;3.76;100.00;100361.93;1693148;84;21062;-62
2022/03/03 02:33:12;;;;;;;12.05;7.72;;;;;;;3.68;100.00;100356.58;1712879;82;21013;-62
2022/03/03 02:35:38;;;;;;;11.95;8.13;;;;;;;3.76;100.00;100354.30;1717790;83;21025;-62
2022/03/03 02:38:06;;;;;;;11.55;7.87;;;;;;;3.72;100.00;100357.77;1717624;83;21040;-62
2022/03/03 02:40:33;;;;;;;11.70;8.10;;;;;;;3.75;100.00;100351.36;1717268;83;21075;-63
2022/03/03 02:43:00;;;;;;;12.82;8.55;;;;;;;3.78;100.00;100344.09;1720153;82;21034;-62
2022/03/03 02:45:26;;;;;;;14.75;8.30;;;;;;;3.72;100.00;100341.22;1747401;81;21538;-62
2022/03/03 02:47:53;;;;;;;11.88;7.85;;;;;;;3.78;100.00;100339.00;1722090;82;21098;-62
2022/03/03 02:50:25;;;;;;;13.55;8.48;;;;;;;3.74;100.00;100343.30;1747112;82;21017;-63
2022/03/03 02:52:51;;;;;;;14.40;9.33;;;;;;;3.72;100.00;100335.29;1728475;82;21028;-61
2022/03/03 02:55:20;;;;;;;12.20;8.33;;;;;;;3.76;100.00;100337.74;1716947;83;21005;-63
2022/03/03 02:57:56;;;;;;;13.13;8.58;;;;;;;3.71;100.00;100329.78;1717610;83;21548;-62
2022/03/03 03:00:27;;;;;;;11.20;7.47;;;;;;;3.60;100.00;100330.81;1717185;83;21041;-62
2022/03/03 03:02:54;;;;;;;11.05;6.75;;;;;;;3.57;100.00;100327.07;1716586;82;21077;-63
2022/03/03 03:05:21;;;;;;;14.78;8.00;;;;;;;3.65;100.00;100330.75;1746920;82;21542;-63
2022/03/03 03:07:49;;;;;;;14.07;7.25;;;;;;;3.65;100.00;100321.84;1702146;83;21067;-62
2022/03/03 03:10:15;;;;;;;13.70;7.80;;;;;;;3.68;100.00;100326.03;1717738;83;21000;-62
2022/03/03 03:12:43;;;;;;;16.17;8.23;;;;;;;3.76;100.00;100316.55;1717631;83;21487;-61
2022/03/03 03:15:11;;;;;;;19.90;9.25;;;;;;;3.73;100.00;100317.45;1723862;83;21036;-63
2022/03/03 03:17:38;;;;;;;24.27;10.13;;;;;;;3.68;100.00;100323.48;1724640;82;21057;-62
2022/03/03 03:20:07;;;;;;;24.75;11.12;;;;;;;3.65;100.00;100318.03;1724993;82;21063;-62
2022/03/03 03:22:36;;;;;;;28.87;11.40;;;;;;;3.61;100.00;100304.95;1699649;84;21515;-60
2022/03/03 03:25:10;;;;;;;26.25;12.70;;;;;;;3.70;100.00;100299.67;1712276;83;21018;-60
2022/03/03 03:27:39;;;;;;;29.40;12.68;;;;;;;3.64;100.00;100298.95;1711853;83;21519;-60
2022/03/03 03:30:09;;;;;;;31.57;13.87;;;;;;;3.70;100.00;100294.58;1712439;83;21089;-60
2022/03/03 03:32:37;;;;;;;34.50;14.60;;;;;;;3.64;100.00;100288.78;1719028;83;21075;-61
2022/03/03 03:35:06;;;;;;;32.95;15.18;;;;;;;3.70;100.00;100283.12;1718725;82;21020;-61
2022/03/03 03:37:33;;;;;;;36.73;15.08;;;;;;;3.71;100.00;100279.73;1712902;83;21515;-60
2022/03/03 03:40:00;;;;;;;38.53;15.08;;;;;;;3.72;100.00;100268.66;1694145;83;21523;-61
2022/03/03 03:42:27;;;;;;;33.33;16.05;;;;;;;3.62;100.00;100260.80;1691743;85;21095;-61
2022/03/03 03:44:55;;;;;;;38.35;16.17;;;;;;;3.67;100.00;100249.25;1712638;84;21539;-61
2022/03/03 03:47:23;;;;;;;34.73;15.80;;;;;;;3.66;100.00;100244.59;1687475;84;21029;-60
2022/03/03 03:49:50;;;;;;;33.85;16.85;;;;;;;3.64;100.00;100233.61;1724795;83;21564;-60
2022/03/03 03:52:17;;;;;;;36.80;16.30;;;;;;;3.67;100.00;100232.30;1696387;84;21138;-61
2022/03/03 03:54:44;;;;;;;40.17;17.10;;;;;;;3.66;100.00;100226.78;1720014;83;21060;-60
2022/03/03 03:57:11;;;;;;;40.98;17.85;;;;;;;3.73;100.00;100226.22;1722123;83;21418;-61
2022/03/03 03:59:38;;;;;;;40.67;18.65;;;;;;;3.70;100.00;100223.30;1724433;82;21072;-61
2022/03/03 04:02:04;;;;;;;44.48;18.12;;;;;;;3.70;100.00;100219.48;1722058;83;21057;-61
2022/03/03 04:04:32;;;;;;;43.68;18.45;;;;;;;3.72;100.00;100208.84;1696194;84;21043;-61
2022/03/03 04:06:59;;;;;;;44.05;18.48;;;;;;;3.69;100.00;100206.37;1698050;84;21032;-62
2022/03/03 04:09:26;;;;;;;46.70;19.90;;;;;;;3.67;100.00;100203.02;1712452;84;21477;-61
2022/03/03 04:11:53;;;;;;;45.40;19.57;;;;;;;3.68;100.00;100203.41;1682095;85;21099;-62
2022/03/03 04:14:19;;;;;;;44.58;19.73;;;;;;;3.64;100.00;100198.42;1721482;83;21046;-61
2022/03/03 04:16:46;;;;;;;40.00;17.73;;;;;;;3.53;100.00;100197.38;1709865;84;21011;-62
2022/03/03 04:19:14;;;;;;;37.73;16.65;;;;;;;3.48;100.00;100185.16;1696914;84;21256;-62
2022/03/03 04:21:41;;;;;;;30.48;14.90;;;;;;;3.51;100.00;100185.12;1716678;82;21094;-62
2022/03/03 04:24:10;;;;;;;31.23;15.23;;;;;;;3.56;100.00;100189.22;1663319;85;21075;-62
2022/03/03 04:26:38;;;;;;;33.88;15.88;;;;;;;3.63;100.00;100178.91;1696727;84;21103;-61
2022/03/03 04:29:05;;;;;;;33.67;17.45;;;;;;;3.60;100.00;100183.64;1692250;84;21071;-61
2022/03/03 04:31:32;;;;;;;33.38;16.37;;;;;;;3.63;100.00;100185.27;1696608;84;21056;-61
2022/03/03 04:33:59;;;;;;;42.10;19.02;;;;;;;3.70;100.00;100183.84;1688575;85;21056;-61
2022/03/03 04:36:26;;;;;;;47.33;22.35;;;;;;;3.77;100.00;100190.50;1722027;83;21043;-60
2022/03/03 04:38:53;;;;;;;49.75;21.87;;;;;;;3.71;100.00;100193.59;1716714;84;21024;-60
2022/03/03 04:41:21;;;;;;;44.90;19.67;;;;;;;3.70;100.00;100197.84;1686644;84;21095;-61
2022/03/03 04:43:49;;;;;;;41.28;18.32;;;;;;;3.66;100.00;100191.14;1716591;84;21049;-61
2022/03/03 04:46:16;;;;;;;41.50;19.55;;;;;;;3.67;100.00;100191.97;1683066;85;21533;-63
2022/03/03 04:48:44;;;;;;;50.48;21.50;;;;;;;3.74;100.00;100193.54;1696587;84;21111;-61
2022/03/03 04:51:11;;;;;;;53.30;23.55;;;;;;;3.73;100.00;100191.84;1699245;84;21058;-61
2022/03/03 04:53:38;;;;;;;59.23;24.72;;;;;;;3.78;100.00;100183.69;1699590;84;21547;-60
2022/03/03 04:56:05;;;;;;;56.45;24.98;;;;;;;3.88;100.00;100188.98;1699722;84;21055;-61
2022/03/03 04:58:33;;;;;;;60.08;24.85;;;;;;;3.92;100.00;100188.05;1696292;84;21515;-62
2022/03/03 05:00:59;;;;;;;67.42;25.50;;;;;;;3.89;100.00;100184.72;1714827;83;21035;-61
2022/03/03 05:03:26;;;;;;;75.87;28.55;;;;;;;3.88;100.00;100181.79;1698756;83;21018;-61
2022/03/03 05:05:53;;;;;;;73.85;29.55;;;;;;;3.95;100.00;100181.62;1714139;83;22562;-61
2022/03/03 05:08:20;;;;;;;71.67;29.18;;;;;;;4.10;100.00;100179.16;1731486;82;21024;-61
2022/03/03 05:10:48;;;;;;;69.58;28.05;;;;;;;4.13;100.00;100165.52;1687869;85;21126;-61
2022/03/03 05:13:15;;;;;;;70.57;29.23;;;;;;;4.09;100.00;100174.09;1670120;85;21062;-61
2022/03/03 05:15:42;;;;;;;68.78;29.90;;;;;;;4.14;100.00;100175.67;1675671;83;21095;-62
2022/03/03 05:18:09;;;;;;;79.00;31.33;;;;;;;4.17;100.00;100176.86;1690889;85;21063;-61
2022/03/03 05:20:38;;;;;;;66.80;27.70;;;;;;;4.30;100.00;100166.38;1692640;85;21032;-62
2022/03/03 05:23:05;;;;;;;62.27;26.48;;;;;;;4.23;100.00;100173.78;1705259;83;20980;-62
2022/03/03 05:25:34;;;;;;;56.18;26.37;;;;;;;4.16;100.00;100184.13;1716045;83;21019;-62
2022/03/03 05:28:01;;;;;;;62.48;26.37;;;;;;;4.16;100.00;100181.57;1695196;83;21063;-62
2022/03/03 05:30:29;;;;;;;64.50;29.45;;;;;;;4.12;100.00;100183.79;1686455;85;21007;-61
2022/03/03 05:32:57;;;;;;;66.60;29.25;;;;;;;4.30;100.00;100179.98;1727115;83;21005;-62
2022/03/03 05:35:24;;;;;;;66.77;29.45;;;;;;;4.41;100.00;100182.27;1724267;83;20968;-62
2022/03/03 05:37:51;;;;;;;55.50;27.00;;;;;;;4.42;100.00;100189.05;1717079;83;21007;-62
2022/03/03 05:40:18;;;;;;;54.63;28.25;;;;;;;4.35;100.00;100181.14;1724780;82;21064;-62
2022/03/03 05:42:45;;;;;;;45.17;23.83;;;;;;;4.36;100.00;100187.89;1720163;83;21019;-63
2022/03/03 05:45:12;;;;;;;48.17;24.20;;;;;;;4.38;100.00;100187.45;1696136;84;21051;-64
2022/03/03 05:47:40;;;;;;;51.30;25.32;;;;;;;4.44;100.00;100191.12;1668017;85;21540;-62
2022/03/03 05:50:09;;;;;;;47.33;23.15;;;;;;;4.50;100.00;100191.39;1685373;85;21059;-62
2022/03/03 05:52:35;;;;;;;48.85;23.92;;;;;;;4.47;100.00;100196.14;1690625;85;21047;-62
2022/03/03 05:55:05;;;;;;;52.08;25.77;;;;;;;4.43;100.00;100197.09;1694714;84;21042;-64
2022/03/03 05:57:36;;;;;;;55.85;28.60;;;;;;;4.38;100.00;100202.30;1697277;83;20996;-63
2022/03/03 06:00:14;;;;;;;56.00;26.27;;;;;;;4.48;100.00;100203.34;1728153;83;21040;-63
2022/03/03 06:02:51;;;;;;;50.12;25.25;;;;;;;4.55;100.00;100201.89;1716789;82;21091;-63
2022/03/03 06:05:23;;;;;;;43.30;22.60;;;;;;;4.35;100.00;100204.91;1697862;83;21059;-63
2022/03/03 06:07:56;;;;;;;48.08;24.45;;;;;;;4.36;100.00;100205.32;1698667;83;21518;-63
2022/03/03 06:10:25;;;;;;;48.23;24.35;;;;;;;4.45;100.00;100200.88;1665418;85;21379;-64
2022/03/03 06:13:14;;;;;;;46.88;22.95;;;;;;;4.41;100.00;100195.84;1694562;84;21098;-63
2022/03/03 06:15:44;;;;;;;47.88;23.45;;;;;;;4.34;100.00;100194.73;1688838;84;21717;-63
2022/03/03 06:18:12;;;;;;;51.15;24.60;;;;;;;4.37;100.00;100184.05;1698885;84;21039;-63
2022/03/03 06:20:43;;;;;;;50.28;25.00;;;;;;;4.43;100.00;100189.44;1679997;84;21035;-63
2022/03/03 06:23:11;;;;;;;52.48;24.10;;;;;;;4.21;100.00;100195.02;1686752;84;21535;-62
2022/03/03 06:25:38;;;;;;;50.15;23.77;;;;;;;4.26;100.00;100198.77;1695916;84;20984;-63
2022/03/03 06:28:05;;;;;;;53.42;25.25;;;;;;;4.13;100.00;100190.55;1693689;84;20993;-65
2022/03/03 06:30:32;;;;;;;54.58;26.40;;;;;;;4.03;100.00;100193.34;1702254;84;21015;-62
2022/03/03 06:32:59;;;;;;;57.17;25.75;;;;;;;4.17;100.00;100180.68;1701150;84;21020;-64
2022/03/03 06:35:26;;;;;;;49.10;23.00;;;;;;;4.27;100.00;100174.11;1716239;84;21008;-64
2022/03/03 06:37:53;;;;;;;49.55;22.90;;;;;;;4.15;100.00;100173.52;1717428;83;21372;-62
2022/03/03 06:40:21;;;;;;;45.52;22.30;;;;;;;4.15;100.00;100163.32;1690597;84;21064;-63
2022/03/03 06:42:48;;;;;;;43.65;21.50;;;;;;;4.29;100.00;100166.00;1696644;84;21493;-61
2022/03/03 06:45:17;;;;;;;51.98;22.90;;;;;;;4.44;100.00;100160.55;1679849;85;21091;-62
2022/03/03 06:47:46;;;;;;;50.55;24.75;;;;;;;4.62;100.00;100159.23;1717481;83;21082;-62
2022/03/03 06:50:13;;;;;;;42.38;22.40;;;;;;;4.77;100.00;100151.20;1697131;84;22216;-62
2022/03/03 06:52:40;;;;;;;44.70;22.75;;;;;;;4.83;100.00;100148.94;1690682;84;21032;-62
2022/03/03 06:55:10;;;;;;;41.18;20.97;;;;;;;4.97;100.00;100151.12;1683218;85;20985;-63
2022/03/03 06:57:40;;;;;;;40.03;20.15;;;;;;;5.10;100.00;100154.17;1683945;85;20964;-64
2022/03/03 07:00:09;;;;;;;39.30;20.15;;;;;;;5.00;100.00;100167.16;1688292;84;21015;-63
2022/03/03 07:02:40;;;;;;;36.28;19.48;;;;;;;4.93;100.00;100158.02;1672123;85;21032;-63
2022/03/03 07:05:12;;;;;;;41.05;20.97;;;;;;;4.93;100.00;100165.67;1696924;84;21085;-65
2022/03/03 07:07:43;;;;;;;42.27;21.17;;;;;;;4.98;100.00;100163.81;1634833;87;21077;-64
2022/03/03 07:10:19;;;;;;;39.83;22.32;;;;;;;4.96;100.00;100164.30;1672531;86;21513;-62
2022/03/03 07:12:45;;;;;;;36.95;19.75;;;;;;;5.00;100.00;100170.16;1654978;84;21046;-63
2022/03/03 07:15:12;;;;;;;31.70;17.05;;;;;;;5.05;100.00;100169.61;1686786;84;21102;-63
2022/03/03 07:17:55;;;;;;;36.80;19.23;;;;;;;5.08;100.00;100168.69;1673664;85;21104;-63
2022/03/03 07:20:48;;;;;;;36.40;19.57;;;;;;;5.15;100.00;100170.17;1684230;85;21050;-62
2022/03/03 07:23:23;;;;;;;43.87;22.75;;;;;;;5.22;100.00;100162.31;1680007;85;21107;-63
2022/03/03 07:25:54;;;;;;;33.88;19.20;;;;;;;5.29;100.00;100150.25;1683352;85;21552;-63
2022/03/03 07:28:23;;;;;;;36.88;19.62;;;;;;;5.10;100.00;100158.00;1673221;85;21047;-63
2022/03/03 07:30:51;;;;;;;34.78;19.05;;;;;;;5.17;100.00;100154.39;1663813;85;21091;-63
2022/03/03 07:33:46;;;;;;;33.42;18.15;;;;;;;5.20;100.00;100150.05;1680622;85;21127;-62
2022/03/03 07:36:19;;;;;;;33.95;18.82;;;;;;;5.13;100.00;100160.03;1689205;84;21040;-62
2022/03/03 07:38:57;;;;;;;34.73;18.73;;;;;;;5.11;100.00;100159.66;1671483;85;21071;-62
2022/03/03 07:41:27;;;;;;;29.65;16.80;;;;;;;5.10;100.00;100151.63;1694228;83;21067;-63
2022/03/03 07:43:59;;;;;;;35.10;19.25;;;;;;;5.34;100.00;100143.73;1679504;85;21176;-63
2022/03/03 07:46:28;;;;;;;25.88;14.93;;;;;;;5.73;100.00;100151.11;1668503;85;21067;-63
2022/03/03 07:48:56;;;;;;;28.90;15.30;;;;;;;5.55;100.00;100153.30;1666600;85;21023;-62
2022/03/03 07:51:27;;;;;;;27.67;14.40;;;;;;;5.67;100.00;100149.56;1675767;85;21472;-63
2022/03/03 07:53:55;;;;;;;28.20;15.27;;;;;;;5.49;100.00;100151.38;1694740;85;21588;-63
2022/03/03 07:56:28;;;;;;;31.33;16.48;;;;;;;5.35;100.00;100153.04;1691839;85;21062;-61
2022/03/03 07:59:04;;;;;;;32.67;17.52;;;;;;;5.27;100.00;100145.63;1633332;88;21536;-62
2022/03/03 08:01:35;;;;;;;29.45;16.73;;;;;;;4.92;100.00;100144.84;1656873;87;21118;-64
2022/03/03 08:04:03;;;;;;;27.95;16.05;;;;;;;4.94;100.00;100135.44;1633370;88;21515;-61
2022/03/03 08:06:33;;;;;;;27.10;15.10;;;;;;;4.79;100.00;100129.05;1656812;87;21611;-63
2022/03/03 08:09:01;;;;;;;27.73;16.42;;;;;;;5.07;100.00;100126.18;1658840;86;21012;-62
2022/03/03 08:11:30;;;;;;;31.48;15.90;;;;;;;5.10;100.00;100124.38;1663525;86;21024;-62
2022/03/03 08:13:57;;;;;;;29.70;16.35;;;;;;;5.11;100.00;100122.25;1682815;85;21083;-62
2022/03/03 08:16:26;;;;;;;31.23;16.73;;;;;;;4.96;100.00;100125.20;1672094;84;21091;-64
2022/03/03 08:19:00;;;;;;;28.77;16.15;;;;;;;4.95;100.00;100110.80;1645093;87;21017;-62
2022/03/03 08:21:26;;;;;;;28.62;16.30;;;;;;;4.94;100.00;100104.84;1659794;85;21059;-63
2022/03/03 08:23:58;;;;;;;27.82;16.10;;;;;;;4.73;100.00;100096.51;1697192;84;21062;-62
2022/03/03 08:26:25;;;;;;;27.37;15.18;;;;;;;4.72;100.00;100092.27;1700194;84;21495;-63
2022/03/03 08:28:51;;;;;;;25.08;14.90;;;;;;;4.89;100.00;100084.19;1713431;83;21000;-62
2022/03/03 08:31:23;;;;;;;23.73;14.30;;;;;;;4.85;100.00;100074.95;1697254;84;21003;-63
2022/03/03 08:34:12;;;;;;;27.73;15.13;;;;;;;4.90;100.00;100075.19;1685781;84;21035;-62
2022/03/03 08:36:54;;;;;;;25.15;14.78;;;;;;;4.96;100.00;100061.44;1696559;84;21085;-62
2022/03/03 08:39:28;;;;;;;23.00;13.80;;;;;;;5.10;100.00;100059.77;1698616;83;20978;-63
2022/03/03 08:42:00;;;;;;;21.20;12.68;;;;;;;4.84;100.00;100054.13;1697313;83;21105;-61
2022/03/03 08:44:33;;;;;;;20.37;12.80;;;;;;;4.79;100.00;100050.44;1720770;83;21470;-62
2022/03/03 08:47:05;;;;;;;19.95;11.95;;;;;;;4.83;100.00;100043.10;1700836;83;21058;-63
2022/03/03 08:49:40;;;;;;;18.32;11.53;;;;;;;4.84;100.00;100032.45;1684578;84;22539;-62
2022/03/03 08:52:10;;;;;;;16.97;11.03;;;;;;;4.91;100.00;100036.07;1686710;84;21117;-62
2022/03/03 08:54:36;;;;;;;16.15;10.32;;;;;;;4.88;100.00;100032.31;1686351;84;21526;-64
2022/03/03 08:57:06;;;;;;;15.25;10.63;;;;;;;5.01;100.00;100027.72;1686289;84;21078;-63
2022/03/03 08:59:33;;;;;;;14.53;9.33;;;;;;;5.11;100.00;100029.55;1697553;83;21105;-61
2022/03/03 09:02:00;;;;;;;15.25;10.28;;;;;;;5.27;100.00;100037.59;1644270;86;21084;-63
2022/03/03 09:04:27;;;;;;;14.63;10.00;;;;;;;5.40;100.00;100040.17;1658765;86;21072;-61
2022/03/03 09:06:55;;;;;;;15.20;10.80;;;;;;;5.06;100.00;100046.27;1682259;85;21071;-62
2022/03/03 09:09:23;;;;;;;12.58;9.15;;;;;;;4.77;100.00;100040.28;1708043;83;21579;-63
2022/03/03 09:11:50;;;;;;;13.58;9.88;;;;;;;4.71;100.00;100035.80;1693222;84;21086;-63
2022/03/03 09:14:17;;;;;;;13.35;9.70;;;;;;;4.86;100.00;100030.25;1678315;84;20989;-62
2022/03/03 09:16:44;;;;;;;15.38;10.38;;;;;;;5.01;100.00;100036.65;1618884;86;21067;-62
2022/03/03 09:19:11;;;;;;;13.50;9.83;;;;;;;4.93;100.00;100039.41;1655769;87;21071;-63
2022/03/03 09:21:38;;;;;;;14.60;9.68;;;;;;;5.09;100.00;100041.09;1668702;86;21026;-67
2022/03/03 09:24:06;;;;;;;12.15;9.43;;;;;;;5.12;100.00;100042.27;1661431;85;21040;-63
2022/03/03 09:26:34;;;;;;;12.65;9.43;;;;;;;4.91;100.00;100046.72;1680586;85;21056;-63
2022/03/03 09:29:02;;;;;;;12.35;9.50;;;;;;;5.27;100.00;100036.31;1680056;85;21520;-64
2022/03/03 09:31:30;;;;;;;10.82;8.33;;;;;;;5.67;100.00;100044.03;1651220;85;21532;-63
2022/03/03 09:33:58;;;;;;;10.70;8.25;;;;;;;5.74;100.00;100045.53;1680328;85;21079;-63
2022/03/03 09:36:25;;;;;;;11.28;8.30;;;;;;;5.74;100.00;100046.80;1635256;85;21051;-64
2022/03/03 09:38:52;;;;;;;11.12;8.45;;;;;;;5.80;100.00;100044.05;1680382;85;21009;-64
2022/03/03 09:41:20;;;;;;;9.93;8.00;;;;;;;5.62;100.00;100044.19;1680116;85;21087;-64
2022/03/03 09:43:48;;;;;;;10.60;8.15;;;;;;;5.54;100.00;100033.37;1680431;85;21055;-62
2022/03/03 09:46:15;;;;;;;8.93;6.45;;;;;;;5.48;100.00;100029.73;1680417;85;21076;-62
2022/03/03 09:48:43;;;;;;;9.38;7.25;;;;;;;5.26;100.00;100027.83;1680444;85;20988;-63
2022/03/03 09:51:10;;;;;;;9.80;7.25;;;;;;;5.48;100.00;100025.91;1680478;85;21050;-63
2022/03/03 09:53:40;;;;;;;9.75;7.83;;;;;;;5.53;100.00;100022.31;1680300;85;21111;-62
2022/03/03 09:56:08;;;;;;;9.60;8.00;;;;;;;5.55;100.00;100016.72;1680694;85;21040;-61
2022/03/03 09:58:36;;;;;;;9.40;7.42;;;;;;;5.45;100.00;100021.71;1680522;85;21036;-61
2022/03/03 10:01:03;;;;;;;7.83;6.87;;;;;;;5.56;100.00;100014.57;1680497;85;21520;-61
2022/03/03 10:03:35;;;;;;;10.30;7.95;;;;;;;5.41;100.00;100004.82;1680739;85;21087;-61
2022/03/03 10:06:03;;;;;;;10.08;7.85;;;;;;;5.42;100.00;100004.78;1677723;84;22248;-62
2022/03/03 10:08:32;;;;;;;7.40;6.33;;;;;;;5.51;100.00;100001.09;1638917;85;21055;-63
2022/03/03 10:11:03;;;;;;;7.70;6.50;;;;;;;5.73;100.00;100001.70;1677669;84;21098;-66
2022/03/03 10:13:51;;;;;;;7.30;6.10;;;;;;;5.79;100.00;99995.95;1677653;85;21167;-64
2022/03/03 10:16:29;;;;;;;8.95;6.95;;;;;;;5.82;100.00;99997.59;1703877;83;21605;-64
2022/03/03 10:19:04;;;;;;;8.90;6.95;;;;;;;5.93;100.00;99994.67;1671364;85;21045;-61
2022/03/03 10:21:37;;;;;;;7.95;6.33;;;;;;;5.90;100.00;99994.76;1681855;85;21025;-63
2022/03/03 10:24:28;;;;;;;8.35;7.10;;;;;;;5.92;100.00;99995.55;1686420;85;21059;-62
2022/03/03 10:27:03;;;;;;;9.83;8.33;;;;;;;6.16;100.00;99995.20;1682432;84;21529;-63
2022/03/03 10:29:31;;;;;;;9.28;7.45;;;;;;;6.05;100.00;99994.30;1694283;84;21068;-63
2022/03/03 10:31:59;;;;;;;11.12;8.45;;;;;;;5.66;100.00;99992.56;1693214;84;21047;-63
2022/03/03 10:34:33;;;;;;;9.53;7.95;;;;;;;5.74;100.00;99986.34;1686674;84;21060;-63
2022/03/03 10:37:06;;;;;;;10.68;8.33;;;;;;;5.93;100.00;99984.45;1692737;84;20999;-63
2022/03/03 10:39:44;;;;;;;8.38;7.03;;;;;;;5.87;100.00;99979.55;1700140;84;21001;-61
2022/03/03 10:42:19;;;;;;;8.68;7.42;;;;;;;5.75;100.00;99976.95;1669022;84;21354;-63
2022/03/03 10:45:06;;;;;;;7.85;6.85;;;;;;;5.57;100.00;99969.44;1688474;83;21019;-62
2022/03/03 10:47:35;;;;;;;8.78;7.50;;;;;;;5.56;100.00;99967.78;1675447;84;21072;-64
2022/03/03 10:50:04;;;;;;;10.32;7.90;;;;;;;5.62;100.00;99961.20;1687984;84;20987;-61
2022/03/03 10:52:40;;;;;;;10.90;8.35;;;;;;;5.51;100.00;99950.48;1682422;85;21087;-64
2022/03/03 10:55:10;;;;;;;;;;;;;;;5.66;100.00;99956.39;1690556;85;21038;-64
2022/03/03 10:57:57;;;;;;;7.87;6.62;;;;;;;5.42;100.00;99943.52;1679777;85;20142;-63
2022/03/03 11:00:27;;;;;;;8.13;7.00;;;;;;;5.55;100.00;99946.50;1689434;84;21058;-63
2022/03/03 11:02:58;;;;;;;7.80;6.97;;;;;;;5.50;100.00;99930.97;1692007;84;21044;-64
2022/03/03 11:05:30;;;;;;;8.35;7.22;;;;;;;5.46;100.00;99930.67;1648184;85;20983;-63
2022/03/03 11:07:58;;;;;;;8.63;7.30;;;;;;;5.50;100.00;99920.75;1675942;85;21027;-62
2022/03/03 11:10:29;;;;;;;8.35;7.15;;;;;;;5.61;100.00;99920.77;1678576;85;21527;-62
2022/03/03 11:12:57;;;;;;;6.97;6.05;;;;;;;5.73;100.00;99924.64;1684466;85;21071;-64
2022/03/03 11:15:28;;;;;;;7.85;6.97;;;;;;;5.57;100.00;99932.42;1687527;84;21116;-64
2022/03/03 11:17:56;;;;;;;8.50;6.58;;;;;;;5.64;100.00;99923.69;1669187;85;21035;-62
2022/03/03 11:20:24;;;;;;;8.05;7.22;;;;;;;5.72;100.00;99923.44;1676386;85;21525;-61
2022/03/03 11:22:54;;;;;;;8.33;7.22;;;;;;;5.85;100.00;99917.02;1691533;84;21019;-60
2022/03/03 11:25:35;;;;;;;9.30;7.90;;;;;;;5.99;100.00;99924.24;1681060;84;21739;-63